Avioradar koristi kolačiće da bi Vam omogućio jednostavnije i ugodnije korištenje stranice. 

AVIORADAR - Hrvatski zrakoplovni portal

Poremećaj 12.veljače 2019. - Dubrovnik

Nenad Sredojević.

DBV

Danas su u Dubrovnik sletjela samo dva od predviđenih šest zrakoplova.

Tri zrakoplova su preusmjerena na Split dok je jedan otkazan.

  • OU668/CTN8Y iz Zagreba, u prilazu preusmjeren na Split.
  • C3821/TDR821 iz Osijeka, Rijeke i Splita je otkazao dionicu Split - Dubrovnik te se iz Splita vratio u Rijeku
  • OU419/CTN27H iz Frankfurta preusmjeren za Split nakon pokušaja slijetanja na stazu 30 gdje ga je u finalnom prilazu zahvatilo smicanje vjetra te se odustalo od slijetanja
  • A34817/AEE4817 iz Helsinkija, u prilazu preusmjeren za Split
  • OU664/CTN664 iz Zagreba, preumjeren za Split u prilazu

Razlog svih preusmjeravanja i otkazivanja je vjetar koji je danas u Dubrovniku bio iznad limita većinu dana. 

Sve događaje možete pratiti u realnom vremenu na našem dodatnom Twitter profilu LIVE RADAR HR 

f_800_450_16119285_00_images_SQUAWK_12022019_spu.jpg

METAR LDDU 122030Z 32015G26KT 270V010 9999 FEW065 06/M09 Q1024 TEMPO VRB15G30KT =
METAR LDDU 122000Z VRB10G20KT 9999 FEW070 06/M09 Q1024 TEMPO 34015G28KT =
METAR LDDU 121930Z 31011G21KT 240V020 CAVOK 06/M09 Q1023 TEMPO VRB15G30KT =
METAR LDDU 121900Z 34013G26KT 250V060 CAVOK 06/M09 Q1023 TEMPO VRB24G38KT =
METAR LDDU 121830Z 02013G33KT 330V070 CAVOK 06/M09 Q1023 TEMPO VRB24G38KT =
METAR LDDU 121800Z 34019G37KT 290V080 CAVOK 06/M09 Q1022 TEMPO VRB24G38KT =
METAR LDDU 121730Z 35016G31KT 300V070 9999 FEW040 06/M09 Q1022 TEMPO VRB18G35KT =
METAR LDDU 121700Z 34016G27KT 290V060 9999 FEW040 06/M09 Q1022 TEMPO VRB18G35KT =
METAR LDDU 121630Z 34015G26KT 280V070 9999 FEW040 06/M09 Q1021 TEMPO VRB18G35KT =
METAR LDDU 121600Z VRB18G35KT 9999 FEW040 06/M09 Q1020 TEMPO 35018G35KT =
METAR LDDU 121530Z VRB14G29KT 9999 FEW040 07/M08 Q1020 TEMPO 35018G35KT =
METAR LDDU 121500Z 36020G35KT 290V070 9999 FEW040 07/M09 Q1019 TEMPO VRB18G35KT =
METAR LDDU 121430Z VRB13G29KT 9999 FEW035 08/M09 Q1019 TEMPO 34018G35KT =
METAR LDDU 121400Z VRB14G25KT 9999 FEW035 08/M08 Q1019 TEMPO 34018G35KT =
METAR LDDU 121330Z VRB14G27KT 9999 FEW035 08/M08 Q1019 TEMPO 35018KT =
METAR LDDU 121300Z VRB13G32KT 9999 FEW035 08/M08 Q1018 TEMPO 35018G30KT =
METAR LDDU 121230Z 33011KT 250V020 9999 FEW035 09/M06 Q1018 TEMPO 35018G30KT =
METAR LDDU 121200Z VRB13G31KT 9999 FEW035 09/M07 Q1017 TEMPO 35018G30KT =
METAR LDDU 121130Z VRB16G30KT 9999 FEW035 09/M06 Q1017 TEMPO VRB20G40KT =
METAR LDDU 121100Z VRB22G46KT CAVOK 08/M06 Q1017 TEMPO VRB20G35KT =
METAR LDDU 121030Z 01018G40KT 300V100 CAVOK 08/M07 Q1016 TEMPO VRB25G40KT =
METAR LDDU 121000Z 03019G37KT 300V100 CAVOK 08/M06 Q1016 TEMPO VRB25G40KT =
METAR LDDU 120930Z VRB21G53KT 9999 FEW035 07/M07 Q1016 TEMPO VRB25G40KT =
METAR LDDU 120900Z 01027G54KT 310V100 9999 FEW035 07/M07 Q1016 TEMPO VRB25G40KT =

 

Foto © Flightradar24 screenshot / ZL Split Webcam
METAR © Crocontrol/HKZP